Time;durP1;ratioP1;P1;durP2;ratioP2;P2;SDS_P1;SDS_P2;PMS_P1;PMS_P2;Temp;Humidity;BMP_temperature;BMP_pressure;BME280_temperature;BME280_humidity;BME280_pressure;Samples;Min_cycle;Max_cycle;Signal;HPM_P1;HPM_P2
2021/03/30 00:01:36;;;;;;;6.75;2.53;;;18.10;56.40;;;;;;4978458;28;20183;-82
2021/03/30 00:04:02;;;;;;;5.72;2.42;;;18.10;56.50;;;;;;4995874;28;20634;-80
2021/03/30 00:06:28;;;;;;;3.90;2.00;;;18.10;56.40;;;;;;4978021;28;20192;-80
2021/03/30 00:08:54;;;;;;;6.57;2.33;;;18.10;56.40;;;;;;4995197;28;20231;-82
2021/03/30 00:11:21;;;;;;;4.38;2.38;;;18.10;56.50;;;;;;4978243;28;20521;-80
2021/03/30 00:13:47;;;;;;;5.97;2.13;;;18.00;56.50;;;;;;4977683;28;20179;-80
2021/03/30 00:16:14;;;;;;;7.75;2.15;;;18.00;56.50;;;;;;4977735;28;20160;-80
2021/03/30 00:18:42;;;;;;;6.47;2.28;;;18.10;56.50;;;;;;4995274;28;20158;-81
2021/03/30 00:21:08;;;;;;;4.40;2.28;;;18.10;56.50;;;;;;4977666;28;20658;-81
2021/03/30 00:23:35;;;;;;;6.53;2.28;;;18.10;56.40;;;;;;4977588;28;20524;-81
2021/03/30 00:26:01;;;;;;;4.38;2.20;;;18.10;56.40;;;;;;4994962;28;20221;-81
2021/03/30 00:28:27;;;;;;;5.63;2.40;;;18.10;56.40;;;;;;4977744;28;20159;-82
2021/03/30 00:30:53;;;;;;;4.80;2.00;;;18.10;56.50;;;;;;4995097;28;20235;-81
2021/03/30 00:33:18;;;;;;;4.15;2.15;;;18.00;56.50;;;;;;4977494;28;20627;-81
2021/03/30 00:35:46;;;;;;;5.35;2.50;;;18.00;56.60;;;;;;4961460;28;20653;-81
2021/03/30 00:38:13;;;;;;;9.75;2.97;;;18.00;56.50;;;;;;4994824;28;20188;-81
2021/03/30 00:40:40;;;;;;;5.45;2.05;;;18.00;56.50;;;;;;4977695;28;20160;-80
2021/03/30 00:43:05;;;;;;;6.35;2.30;;;18.00;56.60;;;;;;4961114;28;20176;-82
2021/03/30 00:45:32;;;;;;;7.13;2.40;;;18.00;56.60;;;;;;4977601;28;20196;-81
2021/03/30 00:47:59;;;;;;;6.25;2.40;;;18.00;56.50;;;;;;4977650;28;20159;-81
2021/03/30 00:50:28;;;;;;;5.38;2.65;;;18.00;56.60;;;;;;4994547;28;20192;-82
2021/03/30 00:52:55;;;;;;;7.65;2.55;;;18.00;56.70;;;;;;4994770;28;20179;-82
2021/03/30 00:55:20;;;;;;;5.25;2.30;;;18.00;56.50;;;;;;4977088;28;20258;-82
2021/03/30 00:57:46;;;;;;;3.35;2.00;;;18.00;56.50;;;;;;4977097;28;20212;-80
2021/03/30 01:00:13;;;;;;;8.07;2.58;;;18.00;56.60;;;;;;4977386;28;20730;-83
2021/03/30 01:02:39;;;;;;;6.68;2.47;;;18.00;56.70;;;;;;4977061;28;20616;-81
2021/03/30 01:05:08;;;;;;;5.22;2.22;;;18.00;56.60;;;;;;4976836;28;20199;-80
2021/03/30 01:07:35;;;;;;;7.40;2.35;;;18.00;56.60;;;;;;4977439;28;20152;-80
2021/03/30 01:10:27;;;;;;;5.15;2.45;;;18.00;56.70;;;;;;4976894;28;20152;-82
2021/03/30 01:13:19;;;;;;;4.13;2.08;;;18.00;56.70;;;;;;4994818;28;20164;-82
2021/03/30 01:16:00;;;;;;;3.80;1.92;;;18.00;56.60;;;;;;4979650;28;20179;-81
2021/03/30 01:18:29;;;;;;;5.72;2.25;;;18.00;56.70;;;;;;4976903;28;20164;-82
2021/03/30 01:21:00;;;;;;;5.97;2.25;;;18.00;56.70;;;;;;4960753;28;20164;-80
2021/03/30 01:23:52;;;;;;;3.33;2.00;;;18.00;56.70;;;;;;4976801;28;20187;-80
2021/03/30 01:26:29;;;;;;;7.70;2.30;;;18.00;56.70;;;;;;4970119;28;20573;-81
2021/03/30 01:29:46;;;;;;;5.18;2.35;;;18.00;56.70;;;;;;4976764;28;20156;-81
2021/03/30 01:32:43;;;;;;;3.55;1.85;;;17.90;56.60;;;;;;4915257;29;20178;-83
2021/03/30 01:35:16;;;;;;;5.28;2.28;;;17.90;56.80;;;;;;4899562;29;20182;-81
2021/03/30 01:37:44;;;;;;;3.05;2.30;;;18.00;56.80;;;;;;4899671;29;20634;-81
2021/03/30 01:40:10;;;;;;;5.80;2.13;;;17.90;56.60;;;;;;4915382;29;20242;-83
2021/03/30 01:42:36;;;;;;;5.47;2.45;;;18.00;56.70;;;;;;4899617;29;20167;-80
2021/03/30 01:45:02;;;;;;;3.90;2.25;;;17.90;56.70;;;;;;4899497;29;20634;-81
2021/03/30 01:47:28;;;;;;;4.60;2.22;;;18.00;56.70;;;;;;4899595;29;20194;-82
2021/03/30 01:49:54;;;;;;;3.72;2.30;;;18.00;56.60;;;;;;4899324;29;20254;-81
2021/03/30 01:52:20;;;;;;;5.13;2.35;;;18.00;56.70;;;;;;4899560;29;20246;-83
2021/03/30 01:54:47;;;;;;;6.35;2.40;;;17.90;56.70;;;;;;4914976;29;20233;-82
2021/03/30 01:57:13;;;;;;;6.32;2.38;;;17.90;56.70;;;;;;4899312;29;20179;-82
2021/03/30 01:59:40;;;;;;;4.78;2.17;;;17.90;56.80;;;;;;4915036;29;20288;-81
2021/03/30 02:02:06;;;;;;;4.97;2.13;;;17.90;56.80;;;;;;4915029;29;20159;-80
2021/03/30 02:04:32;;;;;;;4.93;2.00;;;17.90;56.80;;;;;;4899638;29;20173;-82
2021/03/30 02:06:59;;;;;;;8.52;2.45;;;17.90;56.80;;;;;;4967553;28;20226;-80
2021/03/30 02:09:29;;;;;;;5.72;2.40;;;17.90;56.80;;;;;;4976481;28;20573;-81
2021/03/30 02:12:18;;;;;;;3.38;2.13;;;17.90;56.90;;;;;;4977312;28;20159;-82
2021/03/30 02:14:42;;;;;;;5.03;2.10;;;17.90;56.90;;;;;;4993108;28;20267;-81
2021/03/30 02:17:20;;;;;;;4.53;2.10;;;17.90;56.90;;;;;;4976780;28;20238;-82
2021/03/30 02:19:58;;;;;;;5.78;2.30;;;17.90;56.90;;;;;;4976877;28;20153;-81
2021/03/30 02:22:43;;;;;;;2.97;2.10;;;17.90;56.80;;;;;;4962419;28;20589;-82
2021/03/30 02:25:14;;;;;;;5.45;2.78;;;17.90;56.90;;;;;;4997198;28;20560;-82
2021/03/30 02:27:42;;;;;;;4.25;2.17;;;17.90;56.90;;;;;;4979998;28;20223;-82
2021/03/30 02:30:11;;;;;;;4.53;2.30;;;17.90;56.90;;;;;;4980267;28;20184;-82
2021/03/30 02:32:38;;;;;;;4.82;2.25;;;17.90;56.80;;;;;;4979976;28;20608;-81
2021/03/30 02:35:05;;;;;;;4.13;2.13;;;17.90;56.80;;;;;;4979816;28;20171;-81
2021/03/30 02:37:30;;;;;;;6.03;2.00;;;17.90;56.70;;;;;;4963556;28;20509;-82
2021/03/30 02:39:57;;;;;;;4.85;2.13;;;17.90;56.90;;;;;;4963617;28;20174;-80
2021/03/30 02:42:23;;;;;;;5.22;2.20;;;17.90;57.00;;;;;;4979696;28;20183;-82
2021/03/30 02:44:50;;;;;;;6.25;2.45;;;17.90;57.00;;;;;;4997324;28;20163;-81
2021/03/30 02:47:16;;;;;;;4.07;2.30;;;17.90;56.90;;;;;;4979629;28;20551;-82
2021/03/30 02:49:42;;;;;;;3.45;2.20;;;17.90;57.00;;;;;;4979992;28;20627;-82
2021/03/30 02:52:08;;;;;;;3.03;2.10;;;17.80;56.90;;;;;;4979491;28;20167;-80
2021/03/30 02:54:34;;;;;;;4.35;1.92;;;17.80;57.30;;;;;;4996691;28;20223;-81
2021/03/30 02:57:02;;;;;;;4.72;2.40;;;17.80;56.90;;;;;;4979399;28;20259;-82
2021/03/30 02:59:32;;;;;;;4.00;2.08;;;17.80;57.00;;;;;;4979505;28;20562;-81
2021/03/30 03:01:58;;;;;;;3.08;2.00;;;17.80;57.00;;;;;;4979675;28;20160;-81
2021/03/30 03:04:25;;;;;;;6.28;2.10;;;17.80;57.00;;;;;;4979329;28;20156;-80
2021/03/30 03:06:51;;;;;;;4.38;2.33;;;17.80;57.00;;;;;;4979530;28;20235;-82
2021/03/30 03:09:18;;;;;;;6.00;2.15;;;17.80;57.00;;;;;;4979142;28;20164;-80
2021/03/30 03:11:44;;;;;;;4.28;2.05;;;17.80;57.10;;;;;;4979378;28;20622;-80
2021/03/30 03:14:11;;;;;;;5.32;2.15;;;17.80;57.00;;;;;;4962754;28;20160;-82
2021/03/30 03:16:38;;;;;;;2.83;2.00;;;17.80;57.00;;;;;;4979498;28;20586;-80
2021/03/30 03:19:07;;;;;;;7.05;2.22;;;17.80;57.10;;;;;;4962730;28;20531;-83
2021/03/30 03:21:38;;;;;;;3.90;2.03;;;17.80;57.00;;;;;;4978771;28;20160;-81
2021/03/30 03:24:04;;;;;;;5.68;2.10;;;17.80;57.10;;;;;;4978978;28;20163;-80
2021/03/30 03:26:31;;;;;;;3.92;2.28;;;17.80;57.10;;;;;;4979175;28;20654;-81
2021/03/30 03:28:57;;;;;;;4.15;2.13;;;17.80;57.10;;;;;;4962545;28;20171;-81
2021/03/30 03:31:27;;;;;;;3.92;2.00;;;17.80;57.10;;;;;;4978668;28;20594;-81
2021/03/30 03:34:00;;;;;;;4.22;2.30;;;17.80;57.20;;;;;;4978580;28;20155;-82
2021/03/30 03:36:42;;;;;;;5.05;2.22;;;17.80;57.00;;;;;;4995962;28;20203;-82
2021/03/30 03:39:10;;;;;;;3.88;2.20;;;17.80;57.00;;;;;;4978820;28;20268;-82
2021/03/30 03:41:38;;;;;;;5.63;2.00;;;17.80;57.00;;;;;;4962351;28;20631;-82
2021/03/30 03:44:06;;;;;;;4.28;2.28;;;17.80;57.00;;;;;;4978319;28;20194;-82
2021/03/30 03:46:40;;;;;;;4.85;2.33;;;17.80;57.00;;;;;;4995693;28;20192;-80
2021/03/30 03:49:14;;;;;;;5.57;2.22;;;17.80;57.00;;;;;;4978013;28;20262;-81
2021/03/30 03:51:43;;;;;;;6.15;2.30;;;17.80;57.10;;;;;;4978014;28;20234;-82
2021/03/30 03:54:10;;;;;;;4.65;2.20;;;17.80;57.00;;;;;;4961641;28;20256;-81
2021/03/30 03:56:45;;;;;;;5.40;1.98;;;17.80;57.20;;;;;;4961788;28;20172;-81
2021/03/30 03:59:18;;;;;;;5.72;2.00;;;17.80;57.80;;;;;;4995430;28;20194;-81
2021/03/30 04:01:49;;;;;;;5.93;2.30;;;17.80;57.00;;;;;;4978338;28;20160;-81
2021/03/30 04:04:56;;;;;;;3.65;2.45;;;17.90;56.80;;;;;;4978215;28;20150;-80
2021/03/30 04:07:51;;;;;;;4.45;2.13;;;17.90;56.40;;;;;;4916448;29;20206;-83
2021/03/30 04:10:22;;;;;;;3.53;1.90;;;18.00;56.40;;;;;;4915976;29;20201;-82
2021/03/30 04:12:49;;;;;;;4.13;2.10;;;17.90;56.40;;;;;;4901093;29;20208;-82
2021/03/30 04:15:16;;;;;;;2.88;1.75;;;17.90;56.40;;;;;;4916627;29;20163;-82
2021/03/30 04:17:42;;;;;;;6.47;2.05;;;17.90;56.40;;;;;;4916342;29;20277;-81
2021/03/30 04:20:15;;;;;;;3.72;1.90;;;17.90;56.20;;;;;;4900503;29;20681;-82
2021/03/30 04:22:42;;;;;;;4.32;1.92;;;18.00;56.20;;;;;;4916619;29;20181;-80
2021/03/30 04:25:08;;;;;;;3.97;2.05;;;17.90;56.30;;;;;;4885069;29;20600;-82
2021/03/30 04:27:34;;;;;;;5.32;2.15;;;18.00;56.40;;;;;;4900603;29;20234;-83
2021/03/30 04:30:00;;;;;;;4.03;2.10;;;18.00;56.20;;;;;;4900407;29;20582;-81
2021/03/30 04:32:26;;;;;;;3.20;1.80;;;18.00;56.40;;;;;;4900672;29;20617;-81
2021/03/30 04:34:52;;;;;;;5.10;2.13;;;18.00;56.40;;;;;;4916093;29;20219;-82
2021/03/30 04:37:18;;;;;;;3.10;2.00;;;17.90;56.60;;;;;;4916605;29;20656;-80
2021/03/30 04:39:44;;;;;;;3.17;1.67;;;17.90;56.70;;;;;;4900495;29;20241;-81
2021/03/30 04:42:09;;;;;;;3.33;1.83;;;17.90;56.50;;;;;;4900392;29;20653;-82
2021/03/30 04:44:35;;;;;;;5.40;1.95;;;17.90;56.50;;;;;;4959360;28;20176;-80
2021/03/30 04:47:01;;;;;;;5.28;2.10;;;17.90;56.50;;;;;;4977389;28;20690;-81
2021/03/30 04:49:26;;;;;;;4.50;1.98;;;17.90;56.50;;;;;;4977677;28;20522;-80
2021/03/30 04:51:53;;;;;;;3.30;1.90;;;17.90;56.40;;;;;;4994988;28;20211;-82
2021/03/30 04:54:19;;;;;;;4.15;1.80;;;17.90;56.50;;;;;;4994501;28;20156;-82
2021/03/30 04:56:46;;;;;;;4.25;1.80;;;18.00;56.10;;;;;;4995089;28;20191;-82
2021/03/30 04:59:13;;;;;;;4.00;1.88;;;18.00;56.40;;;;;;4977477;28;20211;-81
2021/03/30 05:01:47;;;;;;;3.78;1.98;;;18.00;56.30;;;;;;4977646;28;20160;-81
2021/03/30 05:04:21;;;;;;;3.15;1.95;;;17.90;56.20;;;;;;4977293;28;20162;-81
2021/03/30 05:06:48;;;;;;;2.30;1.90;;;18.00;56.30;;;;;;4994417;28;20282;-82
2021/03/30 05:09:14;;;;;;;2.58;1.90;;;17.90;56.40;;;;;;4994765;28;20157;-82
2021/03/30 05:11:41;;;;;;;3.63;2.00;;;17.90;56.50;;;;;;4994585;28;20619;-82
2021/03/30 05:14:16;;;;;;;2.65;1.75;;;17.90;56.50;;;;;;4977357;28;20231;-80
2021/03/30 05:16:43;;;;;;;2.58;1.83;;;17.90;56.50;;;;;;4961666;28;20206;-82
2021/03/30 05:19:09;;;;;;;2.22;1.60;;;17.90;56.40;;;;;;4994266;28;20235;-81
2021/03/30 05:21:35;;;;;;;2.15;1.75;;;17.90;56.50;;;;;;4994389;28;20623;-82
2021/03/30 05:24:02;;;;;;;3.35;2.05;;;17.90;56.50;;;;;;4994559;28;20157;-82
2021/03/30 05:26:30;;;;;;;2.70;1.70;;;17.90;56.60;;;;;;4976947;28;20195;-81
2021/03/30 05:28:55;;;;;;;2.50;1.75;;;17.90;56.60;;;;;;4977053;28;20515;-81
2021/03/30 05:31:21;;;;;;;3.50;1.70;;;17.90;56.40;;;;;;4977535;28;20647;-82
2021/03/30 05:33:47;;;;;;;2.45;1.90;;;17.90;56.50;;;;;;4994357;28;20635;-82
2021/03/30 05:36:14;;;;;;;2.55;1.88;;;17.90;56.30;;;;;;4960876;28;20188;-82
2021/03/30 05:38:39;;;;;;;2.80;1.60;;;17.90;56.30;;;;;;4961557;28;20239;-82
2021/03/30 05:41:06;;;;;;;2.42;1.80;;;17.90;56.30;;;;;;4993784;28;20576;-83
2021/03/30 05:43:34;;;;;;;3.08;1.73;;;17.90;56.30;;;;;;4976931;28;20158;-84
2021/03/30 05:46:01;;;;;;;1.88;1.50;;;17.90;56.30;;;;;;4976163;28;20196;-82
2021/03/30 05:48:48;;;;;;;2.17;1.88;;;17.90;56.30;;;;;;4993790;28;20619;-81
2021/03/30 05:51:15;;;;;;;3.13;1.70;;;17.90;56.20;;;;;;4992553;28;20157;-81
2021/03/30 05:53:44;;;;;;;2.85;1.75;;;17.90;56.40;;;;;;4976162;28;20624;-83
2021/03/30 05:56:11;;;;;;;2.47;1.58;;;17.90;56.40;;;;;;4977920;28;20212;-82
2021/03/30 05:58:38;;;;;;;1.95;1.50;;;17.90;56.50;;;;;;4997610;28;20525;-82
2021/03/30 06:01:05;;;;;;;3.00;1.77;;;17.90;56.40;;;;;;4963900;28;20234;-83
2021/03/30 06:03:32;;;;;;;2.80;1.60;;;17.90;56.40;;;;;;4980180;28;20194;-81
2021/03/30 06:05:58;;;;;;;2.75;1.35;;;17.90;56.40;;;;;;4979817;28;20212;-83
2021/03/30 06:08:25;;;;;;;3.05;1.58;;;17.90;56.60;;;;;;4979863;28;20203;-82
2021/03/30 06:10:55;;;;;;;2.17;1.55;;;17.90;56.40;;;;;;4980000;28;20220;-81
2021/03/30 06:13:50;;;;;;;2.55;1.60;;;17.90;56.30;;;;;;4980305;28;20174;-82
2021/03/30 06:16:26;;;;;;;1.85;1.40;;;17.90;56.50;;;;;;4981196;28;20207;-82
2021/03/30 06:19:13;;;;;;;2.10;1.58;;;17.90;56.50;;;;;;4979531;28;20168;-83
2021/03/30 06:21:46;;;;;;;3.80;1.90;;;17.90;56.50;;;;;;4997315;28;20556;-81
2021/03/30 06:24:21;;;;;;;2.25;1.65;;;17.90;56.50;;;;;;4979907;28;20149;-83
2021/03/30 06:26:49;;;;;;;2.28;1.42;;;17.90;56.60;;;;;;4980622;28;20293;-85
2021/03/30 06:29:35;;;;;;;2.75;1.60;;;17.90;56.50;;;;;;4980447;28;20161;-84
2021/03/30 06:32:24;;;;;;;2.92;1.40;;;18.00;56.40;;;;;;4980849;28;20173;-83
2021/03/30 06:34:54;;;;;;;3.90;1.65;;;18.00;56.50;;;;;;4980609;28;20528;-82
2021/03/30 06:37:27;;;;;;;1.80;1.52;;;17.90;56.50;;;;;;4965150;28;20172;-85
2021/03/30 06:40:06;;;;;;;2.47;1.48;;;17.90;56.60;;;;;;4980411;28;20546;-82
2021/03/30 06:42:42;;;;;;;1.50;1.30;;;18.00;56.50;;;;;;4983109;28;20168;-82
2021/03/30 06:45:13;;;;;;;2.20;1.50;;;18.00;56.40;;;;;;4983278;28;20203;-82
2021/03/30 06:47:40;;;;;;;2.25;1.70;;;18.00;56.40;;;;;;4979531;28;20536;-83
2021/03/30 06:50:09;;;;;;;2.22;1.33;;;18.10;56.40;;;;;;4980743;28;20566;-83
2021/03/30 06:52:37;;;;;;;2.13;1.40;;;18.00;56.40;;;;;;4979675;28;20163;-80
2021/03/30 06:55:06;;;;;;;3.13;1.60;;;18.10;56.30;;;;;;4962954;28;20250;-81
2021/03/30 06:57:46;;;;;;;2.53;1.52;;;18.10;56.30;;;;;;4963381;28;20546;-82
2021/03/30 07:00:18;;;;;;;1.75;1.40;;;18.00;56.40;;;;;;4980047;28;20168;-82
2021/03/30 07:02:44;;;;;;;2.13;1.52;;;18.00;56.50;;;;;;4996321;28;20203;-83
2021/03/30 07:05:25;;;;;;;3.45;1.25;;;18.00;56.50;;;;;;4979293;28;20203;-84
2021/03/30 07:07:59;;;;;;;3.08;1.77;;;18.00;56.40;;;;;;4978618;28;20170;-83
2021/03/30 07:10:26;;;;;;;2.05;1.40;;;18.00;56.50;;;;;;4979126;28;20159;-82
2021/03/30 07:12:53;;;;;;;2.72;1.50;;;18.00;56.40;;;;;;4962609;28;20226;-83
2021/03/30 07:15:22;;;;;;;2.40;1.50;;;18.00;56.30;;;;;;4979047;28;20185;-82
2021/03/30 07:18:07;;;;;;;2.03;1.60;;;18.00;56.40;;;;;;4979382;28;20160;-82
2021/03/30 07:20:44;;;;;;;1.77;1.40;;;18.00;56.40;;;;;;4996817;28;20164;-82
2021/03/30 07:23:26;;;;;;;1.65;1.20;;;18.00;56.40;;;;;;4963141;28;20163;-81
2021/03/30 07:27:05;;;;;;;2.58;1.50;;;18.00;56.20;;;;;;4978650;28;20199;-81
2021/03/30 07:29:51;;;;;;;1.77;1.35;;;18.10;56.30;;;;;;4995895;28;20203;-82
2021/03/30 07:32:49;;;;;;;5.38;1.27;;;18.10;56.20;;;;;;4975528;28;20164;-83
2021/03/30 07:35:36;;;;;;;1.98;1.63;;;18.10;56.90;;;;;;4995392;28;20612;-82
2021/03/30 07:38:17;;;;;;;2.38;1.33;;;18.20;56.20;;;;;;4995915;28;20495;-81
2021/03/30 07:40:50;;;;;;;1.77;1.20;;;18.20;56.10;;;;;;4997265;28;20168;-82
2021/03/30 07:43:22;;;;;;;1.80;1.50;;;18.20;56.20;;;;;;4995497;28;20157;-81
2021/03/30 07:45:49;;;;;;;1.83;1.20;;;18.20;56.10;;;;;;4962173;28;20203;-82
2021/03/30 07:48:17;;;;;;;1.90;1.25;;;18.20;56.00;;;;;;4995667;28;20203;-81
2021/03/30 07:50:49;;;;;;;2.17;1.40;;;18.30;56.10;;;;;;4994258;28;20161;-82
2021/03/30 07:53:37;;;;;;;1.38;1.25;;;18.30;56.10;;;;;;4995188;28;20160;-83
2021/03/30 07:56:05;;;;;;;1.75;1.33;;;18.30;55.90;;;;;;4995104;28;20251;-82
2021/03/30 07:58:42;;;;;;;2.60;1.38;;;18.30;56.00;;;;;;4961991;28;20176;-82
2021/03/30 08:01:09;;;;;;;2.03;1.30;;;18.30;56.00;;;;;;4977732;28;20148;-83
2021/03/30 08:03:37;;;;;;;1.75;1.20;;;18.20;56.10;;;;;;4996129;28;20152;-81
2021/03/30 08:06:03;;;;;;;1.83;1.50;;;18.20;56.10;;;;;;4961602;28;20207;-83
2021/03/30 08:08:28;;;;;;;3.03;1.30;;;18.20;56.20;;;;;;4978128;28;20152;-81
2021/03/30 08:10:54;;;;;;;2.65;1.25;;;18.30;56.00;;;;;;4994977;28;20520;-82
2021/03/30 08:13:27;;;;;;;2.10;1.27;;;18.30;56.10;;;;;;4962050;28;20531;-82
2021/03/30 08:15:59;;;;;;;5.35;1.42;;;18.20;56.30;;;;;;4961442;28;20513;-82
2021/03/30 08:18:27;;;;;;;3.10;1.30;;;18.20;56.20;;;;;;4978646;28;20617;-82
2021/03/30 08:20:59;;;;;;;3.20;1.75;;;18.30;56.30;;;;;;4994424;28;20244;-83
2021/03/30 08:23:26;;;;;;;2.75;1.48;;;18.30;56.30;;;;;;4995493;28;20157;-82
2021/03/30 08:26:14;;;;;;;3.25;1.20;;;18.20;56.40;;;;;;4977214;28;20200;-83
2021/03/30 08:28:48;;;;;;;1.30;1.20;;;18.30;56.40;;;;;;4994542;28;20168;-82
2021/03/30 08:31:43;;;;;;;3.92;1.38;;;18.20;56.50;;;;;;4994462;28;20160;-82
2021/03/30 08:34:18;;;;;;;2.17;1.50;;;18.20;56.70;;;;;;4993863;28;20300;-82
2021/03/30 08:36:44;;;;;;;1.45;1.00;;;18.20;56.70;;;;;;4977149;28;20156;-82
2021/03/30 08:39:33;;;;;;;3.00;1.58;;;18.20;56.80;;;;;;4994866;28;20181;-83
2021/03/30 08:42:05;;;;;;;3.92;1.50;;;18.10;56.70;;;;;;4977470;28;20156;-83
2021/03/30 08:44:39;;;;;;;3.33;1.45;;;18.10;56.80;;;;;;4994702;28;20153;-82
2021/03/30 08:47:05;;;;;;;2.15;1.40;;;18.20;57.10;;;;;;4978355;28;20192;-82
2021/03/30 08:49:42;;;;;;;2.60;1.70;;;18.20;57.10;;;;;;4960673;28;20169;-83
2021/03/30 08:52:09;;;;;;;1.65;1.38;;;18.10;57.50;;;;;;4976852;28;20160;-80
2021/03/30 08:54:54;;;;;;;1.98;1.40;;;18.20;57.30;;;;;;4977054;28;20247;-83
2021/03/30 08:57:34;;;;;;;2.88;1.63;;;18.20;57.40;;;;;;4977129;28;20172;-83
2021/03/30 09:00:02;;;;;;;5.22;1.48;;;18.20;57.40;;;;;;4977856;28;20148;-81
2021/03/30 09:02:29;;;;;;;2.17;1.40;;;18.20;57.10;;;;;;4960504;28;20595;-83
2021/03/30 09:04:55;;;;;;;2.40;1.35;;;18.20;57.10;;;;;;4994194;28;20160;-81
2021/03/30 09:07:22;;;;;;;3.17;1.42;;;18.20;57.30;;;;;;4961501;28;20164;-84
2021/03/30 09:09:49;;;;;;;2.78;1.35;;;18.20;57.20;;;;;;4976785;28;20618;-82
2021/03/30 09:12:17;;;;;;;1.50;1.40;;;18.20;57.10;;;;;;4994621;28;20204;-81
2021/03/30 09:14:44;;;;;;;2.53;1.55;;;18.20;57.10;;;;;;4994251;28;20594;-82
2021/03/30 09:17:12;;;;;;;2.10;1.30;;;18.20;57.00;;;;;;4976790;28;20160;-83
2021/03/30 09:19:43;;;;;;;2.55;1.30;;;18.20;57.10;;;;;;4960549;28;20185;-83
2021/03/30 09:27:44;;;;;;;1.83;1.35;;;18.30;56.80;;;;;;4994380;28;20598;-83
2021/03/30 09:30:17;;;;;;;2.05;1.40;;;18.30;56.70;;;;;;4961279;28;20204;-83
2021/03/30 09:32:45;;;;;;;2.08;1.30;;;18.30;56.80;;;;;;4966827;28;20250;-81
2021/03/30 09:35:14;;;;;;;2.80;1.30;;;18.20;56.90;;;;;;4983129;28;20156;-83
2021/03/30 09:38:02;;;;;;;2.03;1.50;;;18.30;57.00;;;;;;4966700;28;20250;-82
2021/03/30 09:40:42;;;;;;;1.20;1.10;;;18.20;57.10;;;;;;5000493;28;20156;-82
2021/03/30 09:43:10;;;;;;;1.60;1.30;;;18.20;57.80;;;;;;5000640;28;20230;-82
2021/03/30 09:45:39;;;;;;;1.75;1.50;;;18.20;57.10;;;;;;4982997;28;20188;-81
2021/03/30 09:48:09;;;;;;;2.00;1.30;;;18.20;57.00;;;;;;4982947;28;20159;-82
2021/03/30 09:50:39;;;;;;;1.60;1.23;;;18.30;56.80;;;;;;4982563;28;20183;-84
2021/03/30 09:53:07;;;;;;;1.70;1.30;;;18.20;57.10;;;;;;4983190;28;20527;-83
2021/03/30 09:55:38;;;;;;;3.10;1.48;;;18.20;58.10;;;;;;4966308;28;20646;-82
2021/03/30 09:58:05;;;;;;;1.85;1.45;;;18.10;57.60;;;;;;4983039;28;20582;-83
2021/03/30 10:00:33;;;;;;;3.47;1.48;;;18.00;57.80;;;;;;5000218;28;20211;-83
2021/03/30 10:03:00;;;;;;;2.70;1.25;;;18.00;57.80;;;;;;5000216;28;20634;-83
2021/03/30 10:05:35;;;;;;;1.95;1.30;;;18.10;57.80;;;;;;5000275;28;20188;-83
2021/03/30 10:08:02;;;;;;;1.63;1.50;;;18.20;57.50;;;;;;4966736;28;20674;-81
2021/03/30 10:10:46;;;;;;;2.35;1.52;;;18.20;57.40;;;;;;5000336;28;20187;-81
2021/03/30 10:13:31;;;;;;;1.70;1.30;;;18.20;57.50;;;;;;5000560;28;20570;-83
2021/03/30 10:16:07;;;;;;;2.75;1.33;;;18.20;57.30;;;;;;4984092;28;20173;-82
2021/03/30 10:18:35;;;;;;;1.48;1.35;;;18.20;57.10;;;;;;4982987;28;20167;-84
2021/03/30 10:21:06;;;;;;;1.65;1.27;;;18.20;57.10;;;;;;5000997;28;20167;-82
2021/03/30 10:23:42;;;;;;;1.95;1.40;;;18.30;56.80;;;;;;5002069;28;20160;-82
2021/03/30 10:26:13;;;;;;;1.55;1.30;;;18.40;56.80;;;;;;5001378;28;20211;-84
2021/03/30 10:28:40;;;;;;;1.67;1.30;;;18.30;56.90;;;;;;4983592;28;20171;-83
2021/03/30 10:31:23;;;;;;;1.88;1.60;;;18.40;56.90;;;;;;4983071;28;20163;-82
2021/03/30 10:33:51;;;;;;;1.85;1.50;;;18.30;57.00;;;;;;4986020;28;20170;-84
2021/03/30 10:36:17;;;;;;;2.42;1.50;;;18.30;57.30;;;;;;4983829;28;20609;-84
2021/03/30 10:39:25;;;;;;;2.65;1.50;;;18.30;57.20;;;;;;4967678;28;20168;-84
2021/03/30 10:42:05;;;;;;;2.00;1.40;;;18.30;57.00;;;;;;4979596;28;20176;-81
2021/03/30 10:44:57;;;;;;;1.70;1.52;;;18.40;57.00;;;;;;4963537;28;20199;-81
2021/03/30 10:47:25;;;;;;;2.92;1.50;;;18.30;56.90;;;;;;4979137;28;20206;-82
2021/03/30 10:49:59;;;;;;;1.60;1.35;;;18.30;56.80;;;;;;4979998;28;20172;-83
2021/03/30 10:52:29;;;;;;;1.40;1.30;;;18.40;56.90;;;;;;4963151;28;20245;-83
2021/03/30 10:54:59;;;;;;;1.63;1.38;;;18.30;56.90;;;;;;4963174;28;20666;-84
2021/03/30 10:57:35;;;;;;;1.27;1.17;;;18.30;56.90;;;;;;4979228;28;20152;-84
2021/03/30 11:00:06;;;;;;;2.05;1.40;;;18.40;56.80;;;;;;4979730;28;20187;-85
2021/03/30 11:02:32;;;;;;;2.00;1.60;;;18.30;56.90;;;;;;4979328;28;20320;-82
2021/03/30 11:04:59;;;;;;;1.75;1.40;;;18.40;56.80;;;;;;4996719;28;20160;-84
2021/03/30 11:07:26;;;;;;;1.50;1.40;;;18.30;56.80;;;;;;4979907;28;20270;-83
2021/03/30 11:09:52;;;;;;;1.50;1.40;;;18.30;56.90;;;;;;4979626;28;20179;-83
2021/03/30 11:12:19;;;;;;;1.83;1.48;;;18.30;57.10;;;;;;4960500;28;20608;-84
2021/03/30 11:14:46;;;;;;;2.88;1.45;;;18.30;57.00;;;;;;4962654;28;20161;-85
2021/03/30 11:17:12;;;;;;;1.67;1.50;;;18.30;56.90;;;;;;4978163;28;20161;-81
2021/03/30 11:19:39;;;;;;;1.88;1.67;;;18.30;56.70;;;;;;4945406;28;20179;-83
2021/03/30 11:22:06;;;;;;;1.92;1.48;;;18.30;57.00;;;;;;4978511;28;20269;-81
2021/03/30 11:24:34;;;;;;;1.75;1.50;;;18.30;56.70;;;;;;4979358;28;20150;-83
2021/03/30 11:27:01;;;;;;;1.90;1.50;;;18.40;56.70;;;;;;4961100;28;20283;-82
2021/03/30 11:39:37;;;;;;;3.22;1.45;;;18.50;55.50;;;;;;4968525;28;20161;-82
2021/03/30 11:42:04;;;;;;;2.55;1.70;;;18.50;56.20;;;;;;4964964;28;20157;-83
2021/03/30 11:44:31;;;;;;;3.13;1.25;;;18.50;56.40;;;;;;4952341;28;20177;-81
2021/03/30 11:47:00;;;;;;;1.80;1.50;;;18.60;55.80;;;;;;4937635;28;20200;-81
2021/03/30 11:49:27;;;;;;;1.60;1.40;;;18.50;56.00;;;;;;4955676;28;20213;-81
2021/03/30 11:51:53;;;;;;;1.35;1.25;;;18.40;55.90;;;;;;4938348;28;20165;-82
2021/03/30 11:54:19;;;;;;;4.15;1.42;;;18.50;55.90;;;;;;4954863;28;20168;-81
2021/03/30 11:56:52;;;;;;;1.92;1.30;;;18.50;55.80;;;;;;4954892;28;20180;-81
2021/03/30 11:59:23;;;;;;;1.77;1.60;;;18.50;55.60;;;;;;4971424;28;20183;-81
2021/03/30 12:01:50;;;;;;;1.92;1.40;;;18.50;55.70;;;;;;4955276;28;20169;-82
2021/03/30 12:04:24;;;;;;;1.70;1.42;;;18.60;55.60;;;;;;4970334;28;20157;-81
2021/03/30 12:06:57;;;;;;;1.85;1.35;;;18.60;55.50;;;;;;4969769;28;20200;-81
2021/03/30 12:09:24;;;;;;;1.33;1.23;;;18.60;55.30;;;;;;4971370;28;20160;-81
2021/03/30 12:11:52;;;;;;;2.45;1.10;;;18.60;55.40;;;;;;4971228;28;20165;-81
2021/03/30 12:14:18;;;;;;;2.15;1.60;;;18.50;55.30;;;;;;4954638;28;20535;-81
2021/03/30 12:16:52;;;;;;;1.67;1.38;;;18.50;55.60;;;;;;4987307;28;20168;-81
2021/03/30 12:19:19;;;;;;;1.92;1.40;;;18.50;55.60;;;;;;4955148;28;20609;-81
2021/03/30 12:21:46;;;;;;;2.30;1.63;;;18.40;55.70;;;;;;4955152;28;20187;-81
2021/03/30 12:24:14;;;;;;;2.58;1.70;;;18.40;55.90;;;;;;4971262;28;20179;-80
2021/03/30 12:26:48;;;;;;;3.83;1.73;;;18.40;55.80;;;;;;4971060;28;20273;-81
2021/03/30 12:29:20;;;;;;;2.28;1.70;;;18.30;56.00;;;;;;4971018;28;20243;-81
2021/03/30 12:31:46;;;;;;;1.85;1.40;;;18.40;55.90;;;;;;4970297;28;20161;-81
2021/03/30 12:34:14;;;;;;;2.00;1.50;;;18.40;55.80;;;;;;4987047;28;20149;-81
2021/03/30 12:36:43;;;;;;;2.17;1.40;;;18.40;55.60;;;;;;4954420;28;20165;-81
2021/03/30 12:39:10;;;;;;;2.22;1.48;;;18.40;56.40;;;;;;4970795;28;20216;-82
2021/03/30 12:41:38;;;;;;;1.67;1.40;;;18.40;55.90;;;;;;4962012;28;20195;-81
2021/03/30 12:44:05;;;;;;;2.40;1.40;;;18.40;55.40;;;;;;5005588;28;20263;-81
2021/03/30 12:46:34;;;;;;;1.73;1.30;;;18.50;55.50;;;;;;4986067;28;20291;-81
2021/03/30 12:49:00;;;;;;;1.50;1.38;;;18.50;55.60;;;;;;4989053;28;20167;-82
2021/03/30 12:51:26;;;;;;;1.95;1.67;;;18.40;55.50;;;;;;4969143;28;20584;-84
2021/03/30 12:53:57;;;;;;;1.77;1.50;;;18.50;55.50;;;;;;4970830;28;20203;-84
2021/03/30 12:56:23;;;;;;;1.50;1.38;;;18.50;55.40;;;;;;4954634;28;20230;-84
2021/03/30 12:58:49;;;;;;;2.38;1.50;;;18.60;55.00;;;;;;4969832;28;20164;-84
2021/03/30 13:01:18;;;;;;;1.85;1.70;;;18.60;55.10;;;;;;4956811;28;20195;-82
2021/03/30 13:03:44;;;;;;;2.05;1.40;;;18.60;55.10;;;;;;4988802;28;20256;-82
2021/03/30 13:06:09;;;;;;;3.33;1.38;;;18.60;55.20;;;;;;4954159;28;20244;-83
2021/03/30 13:08:35;;;;;;;2.25;1.85;;;18.50;55.30;;;;;;4954273;28;20164;-83
2021/03/30 13:11:01;;;;;;;2.05;1.67;;;18.50;55.30;;;;;;4972072;28;20232;-82
2021/03/30 13:13:26;;;;;;;1.27;1.17;;;18.50;55.20;;;;;;4972949;28;20160;-82
2021/03/30 13:15:53;;;;;;;2.40;1.63;;;18.60;55.00;;;;;;4972065;28;20161;-82
2021/03/30 13:18:22;;;;;;;2.15;1.20;;;18.60;55.10;;;;;;4954624;28;20263;-81
2021/03/30 13:20:49;;;;;;;1.50;1.40;;;18.60;54.90;;;;;;4988167;28;20257;-81
2021/03/30 13:23:17;;;;;;;1.48;1.30;;;18.60;55.00;;;;;;4971829;28;20634;-81